Time;durP1;ratioP1;P1;durP2;ratioP2;P2;SDS_P1;SDS_P2;PMS_P1;PMS_P2;Temp;Humidity;BMP_temperature;BMP_pressure;BME280_temperature;BME280_humidity;BME280_pressure;Samples;Min_cycle;Max_cycle;Signal;HPM_P1;HPM_P2
2022/09/16 00:00:26;;;;;;;;;3.33;3.33;;;;;21.32;46.48;100750.03;2100844;28;47031;-58
2022/09/16 00:01:26;;;;;;;;;3.50;3.50;;;;;21.31;46.41;100745.59;2091993;28;47545;-61
2022/09/16 00:02:27;;;;;;;;;4.00;4.00;;;;;21.29;46.58;100748.41;2089221;28;45416;-59
2022/09/16 00:03:27;;;;;;;;;3.00;3.00;;;;;21.28;46.12;100749.38;2091238;28;46999;-58
2022/09/16 00:04:28;;;;;;;;;4.33;4.33;;;;;21.26;46.13;100753.16;2094029;28;47008;-59
2022/09/16 00:05:29;;;;;;;;;4.00;4.00;;;;;21.27;46.33;100754.88;2093238;28;47333;-58
2022/09/16 00:06:29;;;;;;;;;5.00;5.00;;;;;21.25;46.21;100757.69;2102832;27;47299;-59
2022/09/16 00:07:30;;;;;;;;;4.33;4.33;;;;;21.25;46.25;100754.97;2103629;28;47789;-61
2022/09/16 00:08:31;;;;;;;;;5.67;5.67;;;;;21.26;46.38;100754.00;2097626;27;46650;-60
2022/09/16 00:09:31;;;;;;;;;5.00;5.00;;;;;21.26;46.32;100753.16;2099987;28;47536;-59
2022/09/16 00:10:31;;;;;;;;;3.67;3.67;;;;;21.25;46.84;100756.78;2096766;27;47666;-60
2022/09/16 00:11:33;;;;;;;;;4.00;3.00;;;;;21.20;46.17;100754.38;2089690;28;47523;-60
2022/09/16 00:12:33;;;;;;;;;4.25;3.50;;;;;21.16;46.54;100750.16;2090176;28;48378;-61
2022/09/16 00:13:34;;;;;;;;;4.33;4.33;;;;;21.12;46.68;100745.91;2101060;28;47338;-61
2022/09/16 00:14:35;;;;;;;;;3.50;3.50;;;;;21.11;47.20;100758.56;2095707;28;47219;-60
2022/09/16 00:15:35;;;;;;;;;4.67;4.67;;;;;21.11;46.53;100757.69;2099951;28;47895;-62
2022/09/16 00:16:36;;;;;;;;;6.67;4.67;;;;;21.11;46.99;100760.38;2102027;27;47454;-60
2022/09/16 00:17:37;;;;;;;;;6.00;6.00;;;;;21.09;46.57;100762.31;2102469;28;47398;-60
2022/09/16 00:18:37;;;;;;;;;5.00;5.00;;;;;21.06;47.10;100771.44;2102809;28;47270;-58
2022/09/16 00:19:38;;;;;;;;;4.00;4.00;;;;;21.05;47.17;100761.63;2104434;27;48189;-61
2022/09/16 00:20:47;;;;;;;;;4.33;4.33;;;;;21.04;47.38;100769.81;2094361;28;47876;-61
2022/09/16 00:21:48;;;;;;;;;4.00;4.00;;;;;21.04;47.56;100770.69;2094090;28;47871;-60
2022/09/16 00:22:48;;;;;;;;;5.00;4.00;;;;;21.05;47.63;100771.56;2099159;28;47579;-61
2022/09/16 00:23:49;;;;;;;;;4.00;4.00;;;;;21.06;47.25;100771.44;2103927;28;47435;-61
2022/09/16 00:24:50;;;;;;;;;3.00;3.00;;;;;21.07;47.18;100775.88;2100186;28;47746;-59
2022/09/16 00:25:51;;;;;;;;;4.75;4.75;;;;;21.07;47.22;100780.41;2094020;28;47079;-61
2022/09/16 00:26:52;;;;;;;;;4.25;4.25;;;;;21.06;47.33;100779.56;2090402;28;48172;-61
2022/09/16 00:27:52;;;;;;;;;5.00;5.00;;;;;21.07;47.48;100777.72;2097720;28;47869;-61
2022/09/16 00:28:53;;;;;;;;;4.67;4.67;;;;;21.06;47.46;100784.09;2100049;28;47640;-60
2022/09/16 00:29:53;;;;;;;;;5.00;3.67;;;;;21.04;47.57;100780.63;2096414;27;47279;-60
2022/09/16 00:30:57;;;;;;;;;4.00;4.00;;;;;21.05;47.64;100774.25;2088774;28;47830;-59
2022/09/16 00:31:57;;;;;;;;;5.25;5.25;;;;;21.04;47.58;100778.78;2095649;28;47950;-61
2022/09/16 00:32:58;;;;;;;;;4.00;3.33;;;;;21.02;47.18;100772.63;2100757;28;47763;-61
2022/09/16 00:33:58;;;;;;;;;4.33;4.33;;;;;21.00;47.50;100774.56;2102031;28;48541;-62
2022/09/16 00:34:59;;;;;;;;;4.67;4.67;;;;;21.00;47.79;100779.97;2100673;27;47777;-60
2022/09/16 00:36:04;;;;;;;;;5.67;5.67;;;;;20.99;47.27;100778.22;2103834;28;47418;-60
2022/09/16 00:37:07;;;;;;;;;5.75;5.75;;;;;21.00;47.47;100776.41;2094745;28;47138;-61
2022/09/16 00:38:07;;;;;;;;;6.25;4.75;;;;;21.00;47.74;100771.00;2086963;28;47261;-61
2022/09/16 00:39:07;;;;;;;;;4.00;4.00;;;;;21.00;47.92;100776.41;2102464;27;47396;-62
2022/09/16 00:40:09;;;;;;;;;6.33;5.33;;;;;21.01;47.56;100773.59;2103398;28;46123;-62
2022/09/16 00:41:21;;;;;;;;;4.25;3.50;;;;;21.03;47.22;100771.66;2101493;27;48194;-61
2022/09/16 00:42:21;;;;;;;;;4.00;4.00;;;;;21.05;47.71;100771.56;2100984;28;47204;-60
2022/09/16 00:43:22;;;;;;;;;4.67;4.67;;;;;21.04;47.68;100775.22;2104811;28;48033;-61
2022/09/16 00:44:53;;;;;;;;;5.33;5.33;;;;;21.01;48.01;100775.44;2104308;28;47985;-61
2022/09/16 00:46:01;;;;;;;;;5.00;5.00;;;;;20.99;47.79;100778.22;2104683;28;47745;-61
2022/09/16 00:47:01;;;;;;;;;5.50;4.75;;;;;20.97;48.06;100779.28;2102859;28;45707;-60
2022/09/16 00:48:06;;;;;;;;;4.00;4.00;;;;;20.96;47.57;100780.22;2096663;28;46139;-61
2022/09/16 00:49:17;;;;;;;;;6.00;6.00;;;;;20.97;48.06;100782.00;2093799;28;47546;-61
2022/09/16 00:50:17;;;;;;;;;6.00;5.00;;;;;20.96;48.07;100775.72;2106476;27;47530;-61
2022/09/16 00:51:19;;;;;;;;;4.33;4.33;;;;;20.95;47.94;100775.81;2100371;27;48154;-59
2022/09/16 00:52:20;;;;;;;;;4.75;4.00;;;;;20.94;47.58;100779.47;2102246;27;47621;-60
2022/09/16 00:53:28;;;;;;;;;5.00;5.00;;;;;20.93;47.57;100775.03;2100836;27;48435;-61
2022/09/16 00:54:30;;;;;;;;;5.00;4.50;;;;;20.91;47.59;100776.97;2099554;28;45705;-59
2022/09/16 00:55:35;;;;;;;;;5.25;5.25;;;;;20.89;48.55;100776.22;2095149;28;48230;-59
2022/09/16 00:56:39;;;;;;;;;5.50;5.25;;;;;20.87;47.67;100776.31;2092768;28;47555;-61
2022/09/16 00:57:41;;;;;;;;;6.00;5.75;;;;;20.84;48.23;100776.50;2085860;28;47274;-61
2022/09/16 00:58:54;;;;;;;;;5.50;5.50;;;;;20.80;48.18;100773.13;2094686;28;47827;-58
2022/09/16 00:59:55;;;;;;;;;5.50;4.00;;;;;20.77;47.95;100773.31;2105099;27;47600;-61
2022/09/16 01:00:55;;;;;;;;;5.25;4.50;;;;;20.75;47.89;100772.56;2085560;28;47369;-62
2022/09/16 01:01:59;;;;;;;;;6.33;5.00;;;;;20.73;47.96;100769.09;2087075;28;48006;-60
2022/09/16 01:02:59;;;;;;;;;5.60;5.60;;;;;20.70;48.18;100774.66;2102224;27;47532;-60
2022/09/16 01:04:09;;;;;;;;;9.33;7.33;;;;;20.65;48.50;100771.41;2104440;27;47697;-61
2022/09/16 01:05:14;;;;;;;;;5.00;5.00;;;;;20.62;48.05;100771.59;2103422;27;46144;-61
2022/09/16 01:06:17;;;;;;;;;6.50;6.50;;;;;20.60;48.73;100768.13;2096211;28;47112;-59
2022/09/16 01:07:30;;;;;;;;;6.00;6.00;;;;;20.56;48.20;100766.56;2095759;28;47908;-60
2022/09/16 01:08:31;;;;;;;;;7.50;6.25;;;;;20.54;48.31;100765.81;2099566;28;47787;-62
2022/09/16 01:09:32;;;;;;;;;5.00;5.00;;;;;20.52;48.92;100770.44;2096760;28;47358;-61
2022/09/16 01:10:32;;;;;;;;;5.00;5.00;;;;;20.52;49.14;100767.72;2095362;27;47995;-60
2022/09/16 01:11:33;;;;;;;;;4.00;4.00;;;;;20.52;49.04;100762.34;2105648;27;47794;-61
2022/09/16 01:12:35;;;;;;;;;5.67;5.00;;;;;20.51;48.75;100760.59;2104105;27;47938;-60
2022/09/16 01:13:37;;;;;;;;;4.50;4.50;;;;;20.49;48.87;100766.09;2101398;28;47976;-61
2022/09/16 01:14:52;;;;;;;;;4.50;4.50;;;;;20.48;49.11;100764.38;2102857;27;47827;-60
2022/09/16 01:16:11;;;;;;;;;5.00;5.00;;;;;20.47;49.54;100767.16;2104477;27;47564;-60
2022/09/16 01:17:38;;;;;;;;;6.00;6.00;;;;;20.49;49.48;100759.84;2102388;27;47340;-60
2022/09/16 01:18:59;;;;;;;;;4.25;4.25;;;;;20.48;49.16;100771.59;2103591;27;47760;-60
2022/09/16 01:20:19;;;;;;;;;7.00;6.25;;;;;20.45;49.55;100766.38;2092505;28;46198;-60
2022/09/16 01:21:44;;;;;;;;;6.25;5.50;;;;;20.44;49.58;100773.59;2097611;27;47407;-60
2022/09/16 01:23:33;;;;;;;;;4.75;4.75;;;;;20.42;49.58;100775.50;2101718;27;47267;-60
2022/09/16 01:24:58;;;;;;;;;6.80;5.20;;;;;20.41;49.24;100765.66;2094758;28;47592;-60
2022/09/16 01:26:20;;;;;;;;;4.60;4.60;;;;;20.41;49.89;100775.56;2094876;28;47516;-60
2022/09/16 01:27:35;;;;;;;;;4.80;4.80;;;;;20.40;49.59;100769.31;2103069;27;47552;-58
2022/09/16 01:28:50;;;;;;;;;6.60;6.60;;;;;20.38;49.56;100765.00;2098660;27;48065;-59
2022/09/16 01:30:13;;;;;;;;;5.50;5.50;;;;;20.35;49.97;100773.28;2104576;27;47183;-57
2022/09/16 01:31:38;;;;;;;;;6.00;6.00;;;;;20.29;49.47;100772.66;2094617;28;47382;-60
2022/09/16 01:33:03;;;;;;;;;5.25;5.25;;;;;20.25;49.97;100768.44;2097242;27;47440;-59
2022/09/16 01:34:34;;;;;;;;;6.00;4.25;;;;;20.21;50.38;100768.72;2103776;27;45748;-60
2022/09/16 01:35:52;;;;;;;;;6.25;6.25;;;;;20.21;50.37;100768.72;2101900;27;47635;-58
2022/09/16 01:37:05;;;;;;;;;6.25;6.25;;;;;20.20;50.71;100770.56;2102780;27;47997;-60
2022/09/16 01:38:21;;;;;;;;;5.75;5.00;;;;;20.19;50.09;100766.09;2103630;27;47202;-59
2022/09/16 01:39:29;;;;;;;;;6.00;6.00;;;;;20.18;50.39;100768.91;2104139;28;47667;-59
2022/09/16 01:40:54;;;;;;;;;6.75;6.75;;;;;20.17;50.55;100764.47;2103575;27;47926;-59
2022/09/16 01:42:25;;;;;;;;;5.50;5.50;;;;;20.18;50.43;100771.59;2102820;27;48234;-60
2022/09/16 01:43:39;;;;;;;;;7.25;7.25;;;;;20.17;50.58;100773.41;2103846;27;47594;-61
2022/09/16 01:44:48;;;;;;;;;4.00;4.00;;;;;20.14;50.87;100764.66;2102529;27;47613;-59
2022/09/16 01:46:06;;;;;;;;;6.00;6.00;;;;;20.11;50.46;100768.41;2102362;28;46876;-60
2022/09/16 01:47:20;;;;;;;;;7.25;7.25;;;;;20.09;50.49;100770.34;2099427;27;47864;-60
2022/09/16 01:48:37;;;;;;;;;8.75;8.75;;;;;20.07;50.51;100768.66;2102534;27;47740;-58
2022/09/16 01:49:45;;;;;;;;;5.75;5.75;;;;;20.06;51.08;100767.81;2103277;27;47615;-60
2022/09/16 01:51:00;;;;;;;;;7.00;6.50;;;;;20.09;50.73;100764.09;2099893;27;46920;-58
2022/09/16 01:52:13;;;;;;;;;6.25;6.25;;;;;20.07;50.78;100774.06;2098405;28;47908;-59
2022/09/16 01:53:24;;;;;;;;;10.00;8.75;;;;;20.05;50.98;100763.38;2097244;27;47599;-59
2022/09/16 01:54:39;;;;;;;;;7.00;7.00;;;;;20.04;51.34;100766.16;2100914;28;47804;-59
2022/09/16 01:55:50;;;;;;;;;8.00;8.00;;;;;20.04;50.82;100769.72;2100780;28;47898;-62
2022/09/16 01:57:01;;;;;;;;;6.75;5.75;;;;;20.02;50.95;100757.31;2100732;28;48131;-59
2022/09/16 01:58:16;;;;;;;;;7.00;7.00;;;;;20.02;50.77;100771.66;2096173;28;47730;-60
2022/09/16 01:59:37;;;;;;;;;8.50;8.00;;;;;20.01;51.05;100766.38;2094348;28;47177;-59
2022/09/16 02:00:41;;;;;;;;;7.00;7.00;;;;;19.99;51.24;100774.53;2102580;27;48112;-59
2022/09/16 02:01:51;;;;;;;;;9.00;6.00;;;;;19.98;51.11;100770.13;2100008;28;46594;-61
2022/09/16 02:03:02;;;;;;;;;6.50;6.50;;;;;19.99;51.42;100774.53;2101515;28;47752;-60
2022/09/16 02:04:11;;;;;;;;;8.25;7.25;;;;;20.00;51.29;100762.81;2089179;28;47963;-59
2022/09/16 02:05:18;;;;;;;;;10.25;7.75;;;;;20.01;51.39;100769.91;2092875;28;47269;-60
2022/09/16 02:06:26;;;;;;;;;4.50;4.00;;;;;19.99;51.48;100767.31;2104028;27;47548;-59
2022/09/16 02:07:32;;;;;;;;;5.50;5.50;;;;;19.97;51.34;100765.69;2100632;28;47359;-58
2022/09/16 02:08:44;;;;;;;;;6.00;6.00;;;;;19.97;51.81;100761.16;2103632;27;48061;-62
2022/09/16 02:09:53;;;;;;;;;5.25;5.25;;;;;19.97;51.79;100769.25;2096698;28;47689;-60
2022/09/16 02:10:58;;;;;;;;;5.75;5.75;;;;;19.96;51.54;100767.50;2099630;27;47800;-60
2022/09/16 02:12:04;;;;;;;;;6.25;6.25;;;;;19.96;51.85;100762.13;2104590;28;48201;-59
2022/09/16 02:13:22;;;;;;;;;7.75;7.25;;;;;19.95;51.54;100765.78;2092762;28;47601;-59
2022/09/16 02:14:30;;;;;;;;;6.50;5.75;;;;;19.92;51.76;100760.56;2095916;28;47804;-58
2022/09/16 02:15:32;;;;;;;;;6.00;6.00;;;;;19.89;51.77;100762.56;2101129;28;47799;-59
2022/09/16 02:17:02;;;;;;;;;6.00;6.00;;;;;19.87;52.12;100757.28;2102015;27;47273;-60
2022/09/16 02:18:11;;;;;;;;;6.75;6.75;;;;;19.87;52.00;100759.97;2055506;28;47593;-60
2022/09/16 02:19:15;;;;;;;;;5.00;4.75;;;;;19.86;51.57;100765.47;2054022;28;47766;-59
2022/09/16 02:20:23;;;;;;;;;7.75;7.00;;;;;19.84;51.67;100764.69;2061617;28;47635;-60
2022/09/16 02:21:27;;;;;;;;;6.00;6.00;;;;;19.83;51.78;100762.94;2061131;28;47847;-60
2022/09/16 02:22:43;;;;;;;;;8.00;6.50;;;;;19.84;52.08;100764.69;2058423;28;47574;-59
2022/09/16 02:23:47;;;;;;;;;5.50;5.50;;;;;19.82;52.03;100763.88;2059710;28;47864;-58
2022/09/16 02:24:50;;;;;;;;;7.75;7.50;;;;;19.81;52.32;100759.47;2060121;28;47295;-62
2022/09/16 02:25:54;;;;;;;;;8.00;7.00;;;;;19.78;51.97;100765.91;2061903;28;47791;-61
2022/09/16 02:27:01;;;;;;;;;5.75;5.75;;;;;19.76;52.23;100759.75;2060312;28;48254;-61
2022/09/16 02:28:12;;;;;;;;;4.25;4.25;;;;;19.72;52.12;100760.03;2065968;28;47688;-60
2022/09/16 02:29:20;;;;;;;;;9.50;7.50;;;;;19.70;52.59;100770.88;2066433;28;47703;-59
2022/09/16 02:30:22;;;;;;;;;5.50;5.50;;;;;19.67;52.40;100765.66;2057409;28;47350;-58
2022/09/16 02:31:33;;;;;;;;;6.50;6.25;;;;;19.64;52.40;100764.03;2061320;28;47827;-60
2022/09/16 02:32:39;;;;;;;;;6.25;6.25;;;;;19.64;52.40;100760.47;2059755;28;47581;-61
2022/09/16 02:33:48;;;;;;;;;6.25;6.25;;;;;19.64;52.42;100772.09;2052398;28;47394;-61
2022/09/16 02:34:50;;;;;;;;;5.25;5.25;;;;;19.64;52.48;100760.47;2042855;28;47140;-59
2022/09/16 02:35:54;;;;;;;;;5.75;5.75;;;;;19.65;52.64;100754.13;2051285;28;48255;-61
2022/09/16 02:37:00;;;;;;;;;6.00;6.00;;;;;19.66;52.52;100750.47;2059877;28;47815;-62
2022/09/16 02:38:07;;;;;;;;;6.25;6.25;;;;;19.65;52.79;100746.91;2059895;28;47549;-61
2022/09/16 02:39:13;;;;;;;;;7.00;7.00;;;;;19.65;52.86;100751.41;2058765;28;47345;-60
2022/09/16 02:40:18;;;;;;;;;6.00;6.00;;;;;19.66;52.74;100750.47;2061405;28;47656;-61
2022/09/16 02:41:19;;;;;;;;;7.25;6.25;;;;;19.65;52.98;100746.91;2060789;28;47205;-60
2022/09/16 02:42:20;;;;;;;;;9.00;7.33;;;;;19.63;52.92;100743.44;2060152;28;47448;-61
2022/09/16 02:43:21;;;;;;;;;7.80;7.80;;;;;19.63;52.96;100748.81;2059002;28;47800;-59
2022/09/16 02:44:23;;;;;;;;;7.00;6.00;;;;;19.63;52.80;100753.34;2060184;28;47859;-61
2022/09/16 02:45:37;;;;;;;;;8.40;8.40;;;;;19.62;53.09;100752.47;2050453;28;46387;-60
2022/09/16 02:46:56;;;;;;;;;8.00;8.00;;;;;19.62;53.20;100749.78;2052856;28;47786;-61
2022/09/16 02:48:10;;;;;;;;;7.25;7.25;;;;;19.61;53.03;100753.44;2060717;28;47970;-61
2022/09/16 02:49:22;;;;;;;;;7.80;7.80;;;;;19.58;52.89;100742.84;2058456;28;48200;-60
2022/09/16 02:50:51;;;;;;;;;6.00;6.00;;;;;19.55;53.18;100753.78;2056896;28;47263;-57
2022/09/16 02:52:02;;;;;;;;;9.80;8.40;;;;;19.54;53.57;100746.63;2053048;28;47819;-61
2022/09/16 02:53:26;;;;;;;;;6.20;5.60;;;;;19.56;53.17;100741.19;2044106;28;47194;-61
2022/09/16 02:54:44;;;;;;;;;7.00;7.00;;;;;19.56;53.56;100744.75;2054034;28;47702;-60
2022/09/16 02:55:58;;;;;;;;;8.60;8.40;;;;;19.57;53.54;100749.19;2100689;28;47537;-61
2022/09/16 02:56:58;;;;;;;;;7.80;7.80;;;;;19.59;53.56;100736.50;2101404;27;47314;-61
2022/09/16 02:57:59;;;;;;;;;7.00;6.00;;;;;19.61;53.39;100741.81;2101946;27;47530;-61
2022/09/16 02:59:01;;;;;;;;;7.50;7.50;;;;;19.60;53.32;100740.06;2098578;27;46193;-60
2022/09/16 03:00:04;;;;;;;;;10.25;7.75;;;;;19.61;53.48;100733.72;2095212;28;47582;-63
2022/09/16 03:01:05;;;;;;;;;7.25;7.25;;;;;19.60;53.24;100746.31;2085354;28;47197;-60
2022/09/16 03:02:05;;;;;;;;;8.25;6.25;;;;;19.60;53.50;100737.38;2094733;28;46246;-61
2022/09/16 03:03:07;;;;;;;;;7.00;6.00;;;;;19.59;53.35;100736.50;2091684;28;47088;-61
2022/09/16 03:04:14;;;;;;;;;7.75;6.75;;;;;19.58;53.37;100742.84;2097954;28;47226;-61
2022/09/16 03:05:14;;;;;;;;;8.75;7.75;;;;;19.59;53.73;100744.59;2102801;28;47854;-60
2022/09/16 03:06:21;;;;;;;;;8.00;8.00;;;;;19.60;53.87;100732.00;2104794;28;45832;-60
2022/09/16 03:07:21;;;;;;;;;8.00;8.00;;;;;19.61;53.61;100744.50;2093189;28;47780;-62
2022/09/16 03:08:22;;;;;;;;;7.67;7.67;;;;;19.61;54.08;100733.72;2085008;28;47239;-60
2022/09/16 03:09:23;;;;;;;;;7.00;7.00;;;;;19.61;53.81;100731.91;2094304;28;48049;-58
2022/09/16 03:10:28;;;;;;;;;8.75;8.75;;;;;19.62;53.78;100739.00;2108128;27;47233;-60
2022/09/16 03:11:37;;;;;;;;;7.75;7.75;;;;;19.63;53.46;100740.75;2100827;28;47605;-60
2022/09/16 03:12:45;;;;;;;;;8.25;8.25;;;;;19.62;53.83;100736.31;2102676;27;48077;-60
2022/09/16 03:14:10;;;;;;;;;6.25;6.00;;;;;19.62;53.65;100739.00;2101527;28;48047;-60
2022/09/16 03:15:22;;;;;;;;;6.20;6.20;;;;;19.61;53.67;100736.41;2101991;28;47454;-60
2022/09/16 03:16:51;;;;;;;;;7.25;7.25;;;;;19.61;53.59;100739.97;2102985;27;47579;-61
2022/09/16 03:18:16;;;;;;;;;7.25;7.25;;;;;19.61;54.02;100739.09;2101619;28;47699;-60
2022/09/16 03:19:19;;;;;;;;;11.40;8.60;;;;;19.58;53.74;100739.31;2099691;28;47630;-61
2022/09/16 03:20:34;;;;;;;;;8.75;8.75;;;;;19.56;53.81;100735.81;2102558;28;47789;-60
2022/09/16 03:22:01;;;;;;;;;8.25;8.25;;;;;19.55;53.63;100736.75;2101604;28;49624;-61
2022/09/16 03:23:13;;;;;;;;;9.20;6.00;;;;;19.53;53.97;100727.88;2101171;27;48243;-60
2022/09/16 03:24:48;;;;;;;;;7.25;7.25;;;;;19.51;53.90;100730.66;2099693;28;47782;-60
2022/09/16 03:26:03;;;;;;;;;7.00;7.00;;;;;19.50;54.53;100733.44;2103522;28;47484;-60
2022/09/16 03:27:11;;;;;;;;;7.00;7.00;;;;;19.49;54.12;100735.28;2079694;28;47566;-61
2022/09/16 03:28:23;;;;;;;;;9.25;9.00;;;;;19.50;53.89;100733.44;2081296;28;47256;-60
2022/09/16 03:29:33;;;;;;;;;9.25;8.00;;;;;19.50;54.24;100731.63;2094778;28;47547;-60
2022/09/16 03:30:43;;;;;;;;;7.60;7.60;;;;;19.49;53.96;100737.09;2090315;28;47149;-60
2022/09/16 03:31:43;;;;;;;;;7.80;6.40;;;;;19.50;54.04;100734.31;2095114;28;47819;-59
2022/09/16 03:32:52;;;;;;;;;8.75;7.75;;;;;19.50;54.01;100739.69;2098194;27;47304;-62
2022/09/16 03:34:08;;;;;;;;;7.00;7.00;;;;;19.49;54.67;100731.72;2100645;28;47662;-60
2022/09/16 03:35:22;;;;;;;;;8.00;8.00;;;;;19.51;54.28;100730.66;2096120;27;47191;-61
2022/09/16 03:36:29;;;;;;;;;6.60;6.60;;;;;19.50;54.34;100736.16;2096918;27;47922;-61
2022/09/16 03:37:35;;;;;;;;;7.20;7.20;;;;;19.48;54.36;100738.94;2096117;28;48196;-61
2022/09/16 03:38:38;;;;;;;;;10.00;8.80;;;;;19.46;53.86;100738.16;2087753;28;47087;-60
2022/09/16 03:39:40;;;;;;;;;9.20;9.20;;;;;19.44;53.68;100742.75;2089401;28;47627;-60
2022/09/16 03:40:41;;;;;;;;;12.80;11.80;;;;;19.40;54.36;100742.06;2098880;27;47824;-61
2022/09/16 03:41:43;;;;;;;;;7.80;7.00;;;;;19.38;54.50;100748.50;2099901;28;47566;-61
2022/09/16 03:42:44;;;;;;;;;12.00;12.00;;;;;19.37;54.29;100753.00;2091555;28;48090;-61
2022/09/16 03:43:56;;;;;;;;;11.40;11.40;;;;;19.36;54.58;100748.56;2096850;27;45712;-61
2022/09/16 03:44:56;;;;;;;;;9.80;8.80;;;;;19.36;54.40;100751.28;2103253;27;47101;-60
2022/09/16 03:45:56;;;;;;;;;9.25;9.25;;;;;19.37;54.51;100747.63;2104832;27;47402;-61
2022/09/16 03:46:57;;;;;;;;;11.75;10.00;;;;;19.39;54.72;100750.22;2098988;27;47997;-61
2022/09/16 03:47:57;;;;;;;;;11.50;11.50;;;;;19.40;54.76;100750.13;2102276;27;47357;-60
2022/09/16 03:48:58;;;;;;;;;15.00;14.25;;;;;19.42;54.47;100750.03;2100236;27;47568;-59
2022/09/16 03:49:58;;;;;;;;;13.25;13.25;;;;;19.44;54.43;100760.72;2089061;28;47326;-60
2022/09/16 03:50:59;;;;;;;;;13.00;12.50;;;;;19.44;54.47;100752.63;2083015;28;47678;-60
2022/09/16 03:52:00;;;;;;;;;11.75;10.50;;;;;19.42;53.92;100752.72;2083219;28;48153;-61
2022/09/16 03:53:00;;;;;;;;;11.00;9.60;;;;;19.41;54.36;100761.75;2091399;28;48077;-62
2022/09/16 03:54:01;;;;;;;;;12.25;12.25;;;;;19.38;54.27;100760.13;2104226;27;47987;-60
2022/09/16 03:55:01;;;;;;;;;10.00;10.00;;;;;19.37;54.60;100755.69;2098952;27;47081;-61
2022/09/16 03:56:02;;;;;;;;;9.00;9.00;;;;;19.38;54.89;100759.25;2093998;28;45890;-59
2022/09/16 03:57:03;;;;;;;;;14.25;13.00;;;;;19.39;55.12;100761.84;2094891;28;47453;-60
2022/09/16 03:58:04;;;;;;;;;10.00;9.00;;;;;19.41;54.50;100753.69;2099452;27;47237;-61
2022/09/16 03:59:04;;;;;;;;;10.50;9.75;;;;;19.41;54.51;100765.31;2101675;27;47626;-60
2022/09/16 04:00:06;;;;;;;;;10.00;9.00;;;;;19.41;54.32;100761.75;2100427;27;47418;-59
2022/09/16 04:01:07;;;;;;;;;8.00;8.00;;;;;19.40;54.59;100763.59;2095997;27;48124;-59
2022/09/16 04:02:07;;;;;;;;;9.00;8.00;;;;;19.41;54.94;100764.44;2086218;28;47779;-60
2022/09/16 04:03:08;;;;;;;;;10.00;8.67;;;;;19.41;54.63;100764.44;2090377;28;47975;-59
2022/09/16 04:04:08;;;;;;;;;7.33;7.33;;;;;19.42;54.54;100761.66;2106370;27;47491;-62
2022/09/16 04:05:09;;;;;;;;;9.00;8.33;;;;;19.44;54.42;100761.59;2096802;27;47253;-60
2022/09/16 04:06:09;;;;;;;;;9.00;9.00;;;;;19.42;54.09;100758.97;2101804;27;47501;-60
2022/09/16 04:07:10;;;;;;;;;9.00;7.67;;;;;19.41;53.97;100759.06;2074053;28;46183;-61
2022/09/16 04:08:10;;;;;;;;;8.33;8.33;;;;;19.39;54.20;100761.84;2066910;28;47534;-60
2022/09/16 04:09:12;;;;;;;;;8.00;8.00;;;;;19.38;54.70;100756.56;2065473;28;48040;-59
2022/09/16 04:10:12;;;;;;;;;11.00;9.75;;;;;19.40;54.23;100765.41;2079382;28;47463;-60
2022/09/16 04:11:12;;;;;;;;;6.00;6.00;;;;;19.41;54.54;100761.75;2080011;28;47954;-61
2022/09/16 04:12:13;;;;;;;;;11.00;10.33;;;;;19.41;54.40;100765.31;2072265;28;47725;-62
2022/09/16 04:13:14;;;;;;;;;8.67;8.67;;;;;19.40;54.14;100768.97;2073219;28;47323;-60
2022/09/16 04:14:14;;;;;;;;;10.33;9.00;;;;;19.37;54.43;100762.91;2076922;28;47699;-58
2022/09/16 04:15:15;;;;;;;;;10.00;9.00;;;;;19.34;54.63;100768.47;2073024;28;47266;-61
2022/09/16 04:16:22;;;;;;;;;7.33;7.33;;;;;19.30;54.30;100772.25;2080247;28;47169;-58
2022/09/16 04:17:23;;;;;;;;;9.75;9.75;;;;;19.26;54.54;100771.56;2075054;28;46342;-60
2022/09/16 04:18:23;;;;;;;;;7.75;7.75;;;;;19.23;54.83;100770.91;2077240;28;47485;-61
2022/09/16 04:19:24;;;;;;;;;11.00;9.00;;;;;19.23;54.93;100771.75;2076950;28;47460;-61
2022/09/16 04:20:24;;;;;;;;;11.67;10.00;;;;;19.24;54.71;100768.13;2076596;28;46336;-60
2022/09/16 04:21:25;;;;;;;;;8.33;7.00;;;;;19.26;54.98;100773.41;2082623;28;47636;-61
2022/09/16 04:22:29;;;;;;;;;8.00;7.00;;;;;19.25;55.02;100769.84;2075309;28;47612;-60
2022/09/16 04:23:32;;;;;;;;;8.00;8.00;;;;;19.25;54.88;100766.28;2075980;28;48096;-60
2022/09/16 04:24:32;;;;;;;;;7.75;7.75;;;;;19.23;54.67;100771.75;2075788;28;47712;-60
2022/09/16 04:25:33;;;;;;;;;9.33;9.33;;;;;19.23;54.33;100768.22;2082749;28;47373;-60
2022/09/16 04:26:34;;;;;;;;;9.67;8.67;;;;;19.18;54.92;100767.56;2075035;28;47284;-60
2022/09/16 04:27:34;;;;;;;;;8.00;8.00;;;;;19.14;54.97;100769.59;2073991;28;47473;-61
2022/09/16 04:28:35;;;;;;;;;8.75;8.50;;;;;19.14;54.88;100771.41;2071645;28;45838;-61
2022/09/16 04:29:35;;;;;;;;;8.50;8.50;;;;;19.14;55.09;100769.59;2077506;28;45926;-61
2022/09/16 04:30:36;;;;;;;;;7.50;7.50;;;;;19.13;55.14;100769.66;2076434;28;47729;-57
2022/09/16 04:31:37;;;;;;;;;9.80;9.20;;;;;19.13;55.02;100777.75;2078247;28;47575;-61
2022/09/16 04:32:37;;;;;;;;;10.33;8.00;;;;;19.11;55.07;100776.00;2072093;28;48114;-59
2022/09/16 04:33:39;;;;;;;;;9.50;9.50;;;;;19.12;55.07;100774.19;2067515;28;47425;-60
2022/09/16 04:34:39;;;;;;;;;10.20;8.60;;;;;19.11;55.27;100778.69;2064016;28;47366;-60
2022/09/16 04:35:39;;;;;;;;;10.25;10.25;;;;;19.10;55.04;100778.78;2074322;28;47332;-61
2022/09/16 04:36:40;;;;;;;;;9.25;9.25;;;;;19.08;55.05;100776.19;2075228;28;47246;-61
2022/09/16 04:37:40;;;;;;;;;10.00;9.00;;;;;19.08;55.60;100776.19;2077793;28;47550;-60
2022/09/16 04:38:42;;;;;;;;;9.67;9.67;;;;;19.09;55.52;100777.06;2077767;28;47434;-59
2022/09/16 04:39:43;;;;;;;;;9.00;8.00;;;;;19.10;55.17;100774.28;2082043;28;47510;-60
2022/09/16 04:40:44;;;;;;;;;7.50;7.00;;;;;19.13;55.48;100769.66;2090761;28;47136;-61
2022/09/16 04:41:44;;;;;;;;;9.25;7.75;;;;;19.15;55.43;100774.00;2090392;28;47243;-59
2022/09/16 04:42:49;;;;;;;;;10.25;8.50;;;;;19.19;55.13;100772.91;2085462;28;47635;-61
2022/09/16 04:43:57;;;;;;;;;9.60;9.60;;;;;19.21;55.35;100771.00;2083246;28;47452;-61
2022/09/16 04:44:58;;;;;;;;;10.80;10.40;;;;;19.23;55.50;100771.75;2081584;28;47487;-61
2022/09/16 04:45:58;;;;;;;;;7.67;7.33;;;;;19.27;55.46;100776.00;2086677;28;47663;-60
2022/09/16 04:46:59;;;;;;;;;9.33;9.33;;;;;19.30;54.98;100777.66;2084379;28;47646;-59
2022/09/16 04:47:59;;;;;;;;;9.00;8.67;;;;;19.30;55.13;100773.13;2083310;28;47798;-60
2022/09/16 04:49:00;;;;;;;;;11.00;9.67;;;;;19.33;54.72;100775.66;2081304;28;47478;-60
2022/09/16 04:50:00;;;;;;;;;8.00;8.00;;;;;19.35;54.91;100775.56;2084161;28;47548;-61
2022/09/16 04:51:09;;;;;;;;;7.25;6.00;;;;;19.37;54.75;100774.53;2087583;28;47511;-58
2022/09/16 04:52:11;;;;;;;;;9.75;8.50;;;;;19.38;54.63;100770.00;2084701;28;47098;-59
2022/09/16 04:53:11;;;;;;;;;8.67;8.67;;;;;19.37;54.38;100770.97;2082115;28;47415;-60
2022/09/16 04:54:12;;;;;;;;;1.67;0.67;;;;;19.37;54.55;100762.91;2081846;28;47793;-61
2022/09/16 04:55:12;;;;;;;;;10.50;9.50;;;;;19.35;55.08;100772.88;2085184;28;47301;-60
2022/09/16 04:56:19;;;;;;;;;8.25;8.25;;;;;19.33;54.70;100774.81;2079551;28;47273;-60
2022/09/16 04:57:19;;;;;;;;;7.00;7.00;;;;;19.31;55.03;100774.91;2086830;28;47675;-60
2022/09/16 04:58:20;;;;;;;;;6.33;6.00;;;;;19.30;55.03;100778.50;2086442;28;47388;-59
2022/09/16 04:59:21;;;;;;;;;8.25;8.25;;;;;19.29;54.84;100776.78;2084572;28;47434;-59
2022/09/16 05:00:21;;;;;;;;;10.00;10.00;;;;;19.28;55.03;100772.34;2084754;28;47814;-59
2022/09/16 05:01:26;;;;;;;;;7.50;7.50;;;;;19.28;55.09;100777.72;2097576;28;47842;-61
2022/09/16 05:02:28;;;;;;;;;10.60;8.00;;;;;19.30;55.17;100766.88;2096534;28;47674;-58
2022/09/16 05:03:28;;;;;;;;;9.00;8.40;;;;;19.31;54.96;100772.19;2090227;28;48101;-61
2022/09/16 05:04:29;;;;;;;;;10.00;9.00;;;;;19.32;54.90;100773.94;2097969;28;47165;-56
2022/09/16 05:05:29;;;;;;;;;10.00;9.33;;;;;19.34;55.01;100773.84;2094787;28;47599;-62
2022/09/16 05:06:33;;;;;;;;;11.75;10.00;;;;;19.36;55.09;100774.63;2092232;28;47230;-62
2022/09/16 05:07:33;;;;;;;;;11.20;10.00;;;;;19.37;54.59;100768.28;2096721;28;47285;-61